sensor_id;sensor_type;location;lat;lon;timestamp;P1;durP1;ratioP1;P2;durP2;ratioP2
9799;SDS011;4939;52.00085300;4.17406100;2023-08-01T00:00:49;7.75;;;2.90;;
9799;SDS011;4939;52.00085300;4.17406100;2023-08-01T00:03:15;8.93;;;3.13;;
9799;SDS011;4939;52.00085300;4.17406100;2023-08-01T00:05:41;7.97;;;2.47;;
9799;SDS011;4939;52.00085300;4.17406100;2023-08-01T00:08:10;6.20;;;2.15;;
9799;SDS011;4939;52.00085300;4.17406100;2023-08-01T00:10:40;6.90;;;2.25;;
9799;SDS011;4939;52.00085300;4.17406100;2023-08-01T00:13:06;7.30;;;2.10;;
9799;SDS011;4939;52.00085300;4.17406100;2023-08-01T00:15:33;9.57;;;1.95;;
9799;SDS011;4939;52.00085300;4.17406100;2023-08-01T00:17:59;9.65;;;2.10;;
9799;SDS011;4939;52.00085300;4.17406100;2023-08-01T00:20:25;7.70;;;2.13;;
9799;SDS011;4939;52.00085300;4.17406100;2023-08-01T00:22:50;7.65;;;2.30;;
9799;SDS011;4939;52.00085300;4.17406100;2023-08-01T00:25:16;8.20;;;2.13;;
9799;SDS011;4939;52.00085300;4.17406100;2023-08-01T00:27:46;7.68;;;2.38;;
9799;SDS011;4939;52.00085300;4.17406100;2023-08-01T00:30:12;7.80;;;2.20;;
9799;SDS011;4939;52.00085300;4.17406100;2023-08-01T00:32:37;7.43;;;2.00;;
9799;SDS011;4939;52.00085300;4.17406100;2023-08-01T00:35:03;9.77;;;2.05;;
9799;SDS011;4939;52.00085300;4.17406100;2023-08-01T00:37:29;10.82;;;2.40;;
9799;SDS011;4939;52.00085300;4.17406100;2023-08-01T00:39:55;7.82;;;1.88;;
9799;SDS011;4939;52.00085300;4.17406100;2023-08-01T00:42:21;8.60;;;2.15;;
9799;SDS011;4939;52.00085300;4.17406100;2023-08-01T00:44:46;6.80;;;2.20;;
9799;SDS011;4939;52.00085300;4.17406100;2023-08-01T00:47:14;6.22;;;2.15;;
9799;SDS011;4939;52.00085300;4.17406100;2023-08-01T00:49:40;7.55;;;2.08;;
9799;SDS011;4939;52.00085300;4.17406100;2023-08-01T00:52:06;10.90;;;1.90;;
9799;SDS011;4939;52.00085300;4.17406100;2023-08-01T00:54:32;5.90;;;2.00;;
9799;SDS011;4939;52.00085300;4.17406100;2023-08-01T00:57:04;8.13;;;2.00;;
9799;SDS011;4939;52.00085300;4.17406100;2023-08-01T00:59:30;6.63;;;1.92;;
9799;SDS011;4939;52.00085300;4.17406100;2023-08-01T01:01:56;6.28;;;2.10;;
9799;SDS011;4939;52.00085300;4.17406100;2023-08-01T01:04:24;7.63;;;2.10;;
9799;SDS011;4939;52.00085300;4.17406100;2023-08-01T01:06:55;7.22;;;1.98;;
9799;SDS011;4939;52.00085300;4.17406100;2023-08-01T01:09:27;8.57;;;2.17;;
9799;SDS011;4939;52.00085300;4.17406100;2023-08-01T01:11:53;8.25;;;1.90;;
9799;SDS011;4939;52.00085300;4.17406100;2023-08-01T01:14:19;5.90;;;1.70;;
9799;SDS011;4939;52.00085300;4.17406100;2023-08-01T01:16:45;8.07;;;2.10;;
9799;SDS011;4939;52.00085300;4.17406100;2023-08-01T01:19:10;7.32;;;1.77;;
9799;SDS011;4939;52.00085300;4.17406100;2023-08-01T01:21:37;7.05;;;2.38;;
9799;SDS011;4939;52.00085300;4.17406100;2023-08-01T01:24:04;10.48;;;2.38;;
9799;SDS011;4939;52.00085300;4.17406100;2023-08-01T01:26:32;8.65;;;2.00;;
9799;SDS011;4939;52.00085300;4.17406100;2023-08-01T01:28:59;7.45;;;2.20;;
9799;SDS011;4939;52.00085300;4.17406100;2023-08-01T01:31:26;6.72;;;1.80;;
9799;SDS011;4939;52.00085300;4.17406100;2023-08-01T01:33:52;8.23;;;2.40;;
9799;SDS011;4939;52.00085300;4.17406100;2023-08-01T01:36:19;7.93;;;2.58;;
9799;SDS011;4939;52.00085300;4.17406100;2023-08-01T01:38:45;11.43;;;3.45;;
9799;SDS011;4939;52.00085300;4.17406100;2023-08-01T01:41:10;17.20;;;2.65;;
9799;SDS011;4939;52.00085300;4.17406100;2023-08-01T01:43:36;13.48;;;2.70;;
9799;SDS011;4939;52.00085300;4.17406100;2023-08-01T01:46:03;9.85;;;2.63;;
9799;SDS011;4939;52.00085300;4.17406100;2023-08-01T01:48:29;8.73;;;2.70;;
9799;SDS011;4939;52.00085300;4.17406100;2023-08-01T01:50:55;12.02;;;2.67;;
9799;SDS011;4939;52.00085300;4.17406100;2023-08-01T01:53:21;11.05;;;3.33;;
9799;SDS011;4939;52.00085300;4.17406100;2023-08-01T01:55:47;10.80;;;3.17;;
9799;SDS011;4939;52.00085300;4.17406100;2023-08-01T01:58:12;8.32;;;2.50;;
9799;SDS011;4939;52.00085300;4.17406100;2023-08-01T02:00:38;13.25;;;3.00;;
9799;SDS011;4939;52.00085300;4.17406100;2023-08-01T02:03:04;12.25;;;2.60;;
9799;SDS011;4939;52.00085300;4.17406100;2023-08-01T02:05:32;8.88;;;2.53;;
9799;SDS011;4939;52.00085300;4.17406100;2023-08-01T02:07:58;16.52;;;2.95;;
9799;SDS011;4939;52.00085300;4.17406100;2023-08-01T02:10:23;9.05;;;2.20;;
9799;SDS011;4939;52.00085300;4.17406100;2023-08-01T02:12:49;15.90;;;2.72;;
9799;SDS011;4939;52.00085300;4.17406100;2023-08-01T02:15:15;9.55;;;2.75;;
9799;SDS011;4939;52.00085300;4.17406100;2023-08-01T02:17:40;9.65;;;2.80;;
9799;SDS011;4939;52.00085300;4.17406100;2023-08-01T02:20:06;14.35;;;3.45;;
9799;SDS011;4939;52.00085300;4.17406100;2023-08-01T02:22:32;11.88;;;2.97;;
9799;SDS011;4939;52.00085300;4.17406100;2023-08-01T02:24:58;9.68;;;2.58;;
9799;SDS011;4939;52.00085300;4.17406100;2023-08-01T02:27:23;6.63;;;2.60;;
9799;SDS011;4939;52.00085300;4.17406100;2023-08-01T02:29:49;12.45;;;2.83;;
9799;SDS011;4939;52.00085300;4.17406100;2023-08-01T02:32:15;10.38;;;2.80;;
9799;SDS011;4939;52.00085300;4.17406100;2023-08-01T02:34:41;13.45;;;2.80;;
9799;SDS011;4939;52.00085300;4.17406100;2023-08-01T02:37:07;14.15;;;2.90;;
9799;SDS011;4939;52.00085300;4.17406100;2023-08-01T02:39:33;10.23;;;3.00;;
9799;SDS011;4939;52.00085300;4.17406100;2023-08-01T02:41:59;9.85;;;2.85;;
9799;SDS011;4939;52.00085300;4.17406100;2023-08-01T02:44:25;13.40;;;2.83;;
9799;SDS011;4939;52.00085300;4.17406100;2023-08-01T02:46:51;15.15;;;3.20;;
9799;SDS011;4939;52.00085300;4.17406100;2023-08-01T02:49:17;11.80;;;3.05;;
9799;SDS011;4939;52.00085300;4.17406100;2023-08-01T02:51:42;9.48;;;3.00;;
9799;SDS011;4939;52.00085300;4.17406100;2023-08-01T02:54:08;12.52;;;3.33;;
9799;SDS011;4939;52.00085300;4.17406100;2023-08-01T02:56:33;22.25;;;4.63;;
9799;SDS011;4939;52.00085300;4.17406100;2023-08-01T02:58:59;11.80;;;2.95;;
9799;SDS011;4939;52.00085300;4.17406100;2023-08-01T03:01:27;12.27;;;3.20;;
9799;SDS011;4939;52.00085300;4.17406100;2023-08-01T03:03:53;9.32;;;2.75;;
9799;SDS011;4939;52.00085300;4.17406100;2023-08-01T03:06:18;13.55;;;3.40;;
9799;SDS011;4939;52.00085300;4.17406100;2023-08-01T03:08:44;10.82;;;3.10;;
9799;SDS011;4939;52.00085300;4.17406100;2023-08-01T03:11:10;14.48;;;3.10;;
9799;SDS011;4939;52.00085300;4.17406100;2023-08-01T03:13:37;14.63;;;3.15;;
9799;SDS011;4939;52.00085300;4.17406100;2023-08-01T03:16:02;14.85;;;2.88;;
9799;SDS011;4939;52.00085300;4.17406100;2023-08-01T03:18:29;13.48;;;3.72;;
9799;SDS011;4939;52.00085300;4.17406100;2023-08-01T03:20:55;16.35;;;3.42;;
9799;SDS011;4939;52.00085300;4.17406100;2023-08-01T03:23:20;11.55;;;4.10;;
9799;SDS011;4939;52.00085300;4.17406100;2023-08-01T03:25:46;10.20;;;2.30;;
9799;SDS011;4939;52.00085300;4.17406100;2023-08-01T03:28:13;8.93;;;2.42;;
9799;SDS011;4939;52.00085300;4.17406100;2023-08-01T03:30:39;9.52;;;3.10;;
9799;SDS011;4939;52.00085300;4.17406100;2023-08-01T03:33:04;7.57;;;2.72;;
9799;SDS011;4939;52.00085300;4.17406100;2023-08-01T03:35:30;10.27;;;2.65;;
9799;SDS011;4939;52.00085300;4.17406100;2023-08-01T03:37:56;9.93;;;2.65;;
9799;SDS011;4939;52.00085300;4.17406100;2023-08-01T03:40:23;11.32;;;2.60;;
9799;SDS011;4939;52.00085300;4.17406100;2023-08-01T03:42:49;10.52;;;2.10;;
9799;SDS011;4939;52.00085300;4.17406100;2023-08-01T03:45:16;7.47;;;2.15;;
9799;SDS011;4939;52.00085300;4.17406100;2023-08-01T03:47:42;8.63;;;2.15;;
9799;SDS011;4939;52.00085300;4.17406100;2023-08-01T03:50:08;8.45;;;2.10;;
9799;SDS011;4939;52.00085300;4.17406100;2023-08-01T03:52:34;7.47;;;2.13;;
9799;SDS011;4939;52.00085300;4.17406100;2023-08-01T03:54:59;7.95;;;1.85;;
9799;SDS011;4939;52.00085300;4.17406100;2023-08-01T03:57:25;8.15;;;2.03;;
9799;SDS011;4939;52.00085300;4.17406100;2023-08-01T03:59:51;6.60;;;2.35;;
9799;SDS011;4939;52.00085300;4.17406100;2023-08-01T04:02:18;9.20;;;2.50;;
9799;SDS011;4939;52.00085300;4.17406100;2023-08-01T04:04:44;6.40;;;1.85;;
9799;SDS011;4939;52.00085300;4.17406100;2023-08-01T04:07:09;6.30;;;1.98;;
9799;SDS011;4939;52.00085300;4.17406100;2023-08-01T04:09:35;10.48;;;2.63;;
9799;SDS011;4939;52.00085300;4.17406100;2023-08-01T04:12:04;9.48;;;2.83;;
9799;SDS011;4939;52.00085300;4.17406100;2023-08-01T04:14:31;8.27;;;1.92;;
9799;SDS011;4939;52.00085300;4.17406100;2023-08-01T04:16:58;10.07;;;2.00;;
9799;SDS011;4939;52.00085300;4.17406100;2023-08-01T04:19:24;9.32;;;2.42;;
9799;SDS011;4939;52.00085300;4.17406100;2023-08-01T04:21:50;7.22;;;1.65;;
9799;SDS011;4939;52.00085300;4.17406100;2023-08-01T04:24:15;7.78;;;2.15;;
9799;SDS011;4939;52.00085300;4.17406100;2023-08-01T04:26:41;6.78;;;2.05;;
9799;SDS011;4939;52.00085300;4.17406100;2023-08-01T04:29:08;7.35;;;2.13;;
9799;SDS011;4939;52.00085300;4.17406100;2023-08-01T04:31:33;10.25;;;2.10;;
9799;SDS011;4939;52.00085300;4.17406100;2023-08-01T04:33:59;12.73;;;2.30;;
9799;SDS011;4939;52.00085300;4.17406100;2023-08-01T04:36:26;7.72;;;2.10;;
9799;SDS011;4939;52.00085300;4.17406100;2023-08-01T04:38:52;5.45;;;1.60;;
9799;SDS011;4939;52.00085300;4.17406100;2023-08-01T04:41:17;8.30;;;2.25;;
9799;SDS011;4939;52.00085300;4.17406100;2023-08-01T04:43:43;7.28;;;2.17;;
9799;SDS011;4939;52.00085300;4.17406100;2023-08-01T04:46:09;8.73;;;2.08;;
9799;SDS011;4939;52.00085300;4.17406100;2023-08-01T04:48:35;7.75;;;2.00;;
9799;SDS011;4939;52.00085300;4.17406100;2023-08-01T04:51:01;11.50;;;2.78;;
9799;SDS011;4939;52.00085300;4.17406100;2023-08-01T04:53:27;9.23;;;2.53;;
9799;SDS011;4939;52.00085300;4.17406100;2023-08-01T04:55:52;6.95;;;2.20;;
9799;SDS011;4939;52.00085300;4.17406100;2023-08-01T04:58:18;11.05;;;2.25;;
9799;SDS011;4939;52.00085300;4.17406100;2023-08-01T05:00:44;12.10;;;2.25;;
9799;SDS011;4939;52.00085300;4.17406100;2023-08-01T05:03:10;5.72;;;1.90;;
9799;SDS011;4939;52.00085300;4.17406100;2023-08-01T05:05:36;8.82;;;1.80;;
9799;SDS011;4939;52.00085300;4.17406100;2023-08-01T05:08:01;6.45;;;1.80;;
9799;SDS011;4939;52.00085300;4.17406100;2023-08-01T05:10:27;9.38;;;2.08;;
9799;SDS011;4939;52.00085300;4.17406100;2023-08-01T05:12:53;8.18;;;2.03;;
9799;SDS011;4939;52.00085300;4.17406100;2023-08-01T05:15:18;8.45;;;2.33;;
9799;SDS011;4939;52.00085300;4.17406100;2023-08-01T05:17:44;10.95;;;2.17;;
9799;SDS011;4939;52.00085300;4.17406100;2023-08-01T05:20:10;7.85;;;2.20;;
9799;SDS011;4939;52.00085300;4.17406100;2023-08-01T05:22:36;11.45;;;2.38;;
9799;SDS011;4939;52.00085300;4.17406100;2023-08-01T05:25:01;11.18;;;2.10;;
9799;SDS011;4939;52.00085300;4.17406100;2023-08-01T05:27:29;8.80;;;1.75;;
9799;SDS011;4939;52.00085300;4.17406100;2023-08-01T05:29:56;8.60;;;2.15;;
9799;SDS011;4939;52.00085300;4.17406100;2023-08-01T05:32:22;8.70;;;2.35;;
9799;SDS011;4939;52.00085300;4.17406100;2023-08-01T05:34:47;15.70;;;2.47;;
9799;SDS011;4939;52.00085300;4.17406100;2023-08-01T05:37:13;12.40;;;2.35;;
9799;SDS011;4939;52.00085300;4.17406100;2023-08-01T05:39:38;8.57;;;2.50;;
9799;SDS011;4939;52.00085300;4.17406100;2023-08-01T05:42:04;13.75;;;2.22;;
9799;SDS011;4939;52.00085300;4.17406100;2023-08-01T05:44:34;6.75;;;2.15;;
9799;SDS011;4939;52.00085300;4.17406100;2023-08-01T05:46:59;10.20;;;2.30;;
9799;SDS011;4939;52.00085300;4.17406100;2023-08-01T05:49:25;8.48;;;2.17;;
9799;SDS011;4939;52.00085300;4.17406100;2023-08-01T05:51:51;5.95;;;2.05;;
9799;SDS011;4939;52.00085300;4.17406100;2023-08-01T05:54:16;8.45;;;2.10;;
9799;SDS011;4939;52.00085300;4.17406100;2023-08-01T05:56:42;8.05;;;2.00;;
9799;SDS011;4939;52.00085300;4.17406100;2023-08-01T05:59:10;6.78;;;2.28;;
9799;SDS011;4939;52.00085300;4.17406100;2023-08-01T06:01:35;8.18;;;2.50;;
9799;SDS011;4939;52.00085300;4.17406100;2023-08-01T06:04:02;9.40;;;2.45;;
9799;SDS011;4939;52.00085300;4.17406100;2023-08-01T06:06:28;8.70;;;2.00;;
9799;SDS011;4939;52.00085300;4.17406100;2023-08-01T06:08:54;12.10;;;2.60;;
9799;SDS011;4939;52.00085300;4.17406100;2023-08-01T06:11:19;11.13;;;2.30;;
9799;SDS011;4939;52.00085300;4.17406100;2023-08-01T06:13:45;12.85;;;2.53;;
9799;SDS011;4939;52.00085300;4.17406100;2023-08-01T06:16:12;9.23;;;2.25;;
9799;SDS011;4939;52.00085300;4.17406100;2023-08-01T06:18:37;8.35;;;2.30;;
9799;SDS011;4939;52.00085300;4.17406100;2023-08-01T06:21:03;12.43;;;2.95;;
9799;SDS011;4939;52.00085300;4.17406100;2023-08-01T06:23:29;9.85;;;2.92;;
9799;SDS011;4939;52.00085300;4.17406100;2023-08-01T06:25:54;12.10;;;2.40;;
9799;SDS011;4939;52.00085300;4.17406100;2023-08-01T06:28:22;10.35;;;2.80;;
9799;SDS011;4939;52.00085300;4.17406100;2023-08-01T06:30:48;8.80;;;2.75;;
9799;SDS011;4939;52.00085300;4.17406100;2023-08-01T06:33:13;8.60;;;2.55;;
9799;SDS011;4939;52.00085300;4.17406100;2023-08-01T06:35:39;8.10;;;2.30;;
9799;SDS011;4939;52.00085300;4.17406100;2023-08-01T06:38:05;7.97;;;2.05;;
9799;SDS011;4939;52.00085300;4.17406100;2023-08-01T06:40:31;7.78;;;2.38;;
9799;SDS011;4939;52.00085300;4.17406100;2023-08-01T06:42:57;11.07;;;2.10;;
9799;SDS011;4939;52.00085300;4.17406100;2023-08-01T06:45:23;5.55;;;1.92;;
9799;SDS011;4939;52.00085300;4.17406100;2023-08-01T06:47:48;9.38;;;2.00;;
9799;SDS011;4939;52.00085300;4.17406100;2023-08-01T06:50:15;7.28;;;2.25;;
9799;SDS011;4939;52.00085300;4.17406100;2023-08-01T06:52:41;11.23;;;2.60;;
9799;SDS011;4939;52.00085300;4.17406100;2023-08-01T06:55:07;9.00;;;2.45;;
9799;SDS011;4939;52.00085300;4.17406100;2023-08-01T06:57:32;9.70;;;2.33;;
9799;SDS011;4939;52.00085300;4.17406100;2023-08-01T07:00:00;4.15;;;1.67;;
9799;SDS011;4939;52.00085300;4.17406100;2023-08-01T07:02:26;4.65;;;1.77;;
9799;SDS011;4939;52.00085300;4.17406100;2023-08-01T07:04:52;8.75;;;1.98;;
9799;SDS011;4939;52.00085300;4.17406100;2023-08-01T07:07:17;6.00;;;2.00;;
9799;SDS011;4939;52.00085300;4.17406100;2023-08-01T07:09:43;7.60;;;1.85;;
9799;SDS011;4939;52.00085300;4.17406100;2023-08-01T07:12:08;8.00;;;2.25;;
9799;SDS011;4939;52.00085300;4.17406100;2023-08-01T07:14:34;4.38;;;1.80;;
9799;SDS011;4939;52.00085300;4.17406100;2023-08-01T07:17:00;9.88;;;2.20;;
9799;SDS011;4939;52.00085300;4.17406100;2023-08-01T07:19:27;10.68;;;2.00;;
9799;SDS011;4939;52.00085300;4.17406100;2023-08-01T07:21:53;5.20;;;1.77;;
9799;SDS011;4939;52.00085300;4.17406100;2023-08-01T07:24:18;8.68;;;2.03;;
9799;SDS011;4939;52.00085300;4.17406100;2023-08-01T07:26:44;10.25;;;2.28;;
9799;SDS011;4939;52.00085300;4.17406100;2023-08-01T07:29:11;9.45;;;2.35;;
9799;SDS011;4939;52.00085300;4.17406100;2023-08-01T07:31:40;7.15;;;2.30;;
9799;SDS011;4939;52.00085300;4.17406100;2023-08-01T07:34:07;8.70;;;2.17;;
9799;SDS011;4939;52.00085300;4.17406100;2023-08-01T07:36:32;8.65;;;2.60;;
9799;SDS011;4939;52.00085300;4.17406100;2023-08-01T07:38:58;12.73;;;2.55;;
9799;SDS011;4939;52.00085300;4.17406100;2023-08-01T07:41:24;13.93;;;2.72;;
9799;SDS011;4939;52.00085300;4.17406100;2023-08-01T07:43:50;6.95;;;2.00;;
9799;SDS011;4939;52.00085300;4.17406100;2023-08-01T07:46:15;6.70;;;2.28;;
9799;SDS011;4939;52.00085300;4.17406100;2023-08-01T07:48:41;11.00;;;2.88;;
9799;SDS011;4939;52.00085300;4.17406100;2023-08-01T07:51:06;9.13;;;2.08;;
9799;SDS011;4939;52.00085300;4.17406100;2023-08-01T07:53:35;12.82;;;2.35;;
9799;SDS011;4939;52.00085300;4.17406100;2023-08-01T07:56:01;7.05;;;2.15;;
9799;SDS011;4939;52.00085300;4.17406100;2023-08-01T07:58:29;7.30;;;2.05;;
9799;SDS011;4939;52.00085300;4.17406100;2023-08-01T08:00:55;10.60;;;2.50;;
9799;SDS011;4939;52.00085300;4.17406100;2023-08-01T08:03:21;6.47;;;2.10;;
9799;SDS011;4939;52.00085300;4.17406100;2023-08-01T08:05:48;9.73;;;2.33;;
9799;SDS011;4939;52.00085300;4.17406100;2023-08-01T08:08:14;6.10;;;1.98;;
9799;SDS011;4939;52.00085300;4.17406100;2023-08-01T08:10:39;10.90;;;1.95;;
9799;SDS011;4939;52.00085300;4.17406100;2023-08-01T08:13:05;8.15;;;2.13;;
9799;SDS011;4939;52.00085300;4.17406100;2023-08-01T08:15:31;6.45;;;2.00;;
9799;SDS011;4939;52.00085300;4.17406100;2023-08-01T08:18:00;7.15;;;2.10;;
9799;SDS011;4939;52.00085300;4.17406100;2023-08-01T08:20:29;5.53;;;2.38;;
9799;SDS011;4939;52.00085300;4.17406100;2023-08-01T08:22:55;6.22;;;1.60;;
9799;SDS011;4939;52.00085300;4.17406100;2023-08-01T08:25:21;8.77;;;1.90;;
9799;SDS011;4939;52.00085300;4.17406100;2023-08-01T08:27:48;6.13;;;1.75;;
9799;SDS011;4939;52.00085300;4.17406100;2023-08-01T08:30:14;7.50;;;1.85;;
9799;SDS011;4939;52.00085300;4.17406100;2023-08-01T08:32:40;9.65;;;2.10;;
9799;SDS011;4939;52.00085300;4.17406100;2023-08-01T08:35:05;7.90;;;1.88;;
9799;SDS011;4939;52.00085300;4.17406100;2023-08-01T08:37:31;8.63;;;1.98;;
9799;SDS011;4939;52.00085300;4.17406100;2023-08-01T08:39:57;5.85;;;2.10;;
9799;SDS011;4939;52.00085300;4.17406100;2023-08-01T08:42:22;6.53;;;2.05;;
9799;SDS011;4939;52.00085300;4.17406100;2023-08-01T08:44:50;9.40;;;2.10;;
9799;SDS011;4939;52.00085300;4.17406100;2023-08-01T08:47:20;8.93;;;2.25;;
9799;SDS011;4939;52.00085300;4.17406100;2023-08-01T08:49:49;7.47;;;2.17;;
9799;SDS011;4939;52.00085300;4.17406100;2023-08-01T08:52:16;10.27;;;2.30;;
9799;SDS011;4939;52.00085300;4.17406100;2023-08-01T08:54:43;10.40;;;2.70;;
9799;SDS011;4939;52.00085300;4.17406100;2023-08-01T08:57:09;8.40;;;2.10;;
9799;SDS011;4939;52.00085300;4.17406100;2023-08-01T08:59:35;11.63;;;2.25;;
9799;SDS011;4939;52.00085300;4.17406100;2023-08-01T09:02:02;10.00;;;2.55;;
9799;SDS011;4939;52.00085300;4.17406100;2023-08-01T09:04:29;8.77;;;2.47;;
9799;SDS011;4939;52.00085300;4.17406100;2023-08-01T09:06:58;9.40;;;2.17;;
9799;SDS011;4939;52.00085300;4.17406100;2023-08-01T09:09:27;9.43;;;2.40;;
9799;SDS011;4939;52.00085300;4.17406100;2023-08-01T09:11:53;9.40;;;2.60;;
9799;SDS011;4939;52.00085300;4.17406100;2023-08-01T09:14:21;7.07;;;2.28;;
9799;SDS011;4939;52.00085300;4.17406100;2023-08-01T09:16:49;7.47;;;2.00;;
9799;SDS011;4939;52.00085300;4.17406100;2023-08-01T09:19:23;8.57;;;2.30;;
9799;SDS011;4939;52.00085300;4.17406100;2023-08-01T09:21:50;6.00;;;1.80;;
9799;SDS011;4939;52.00085300;4.17406100;2023-08-01T09:24:17;6.20;;;1.98;;
9799;SDS011;4939;52.00085300;4.17406100;2023-08-01T09:26:44;6.00;;;1.88;;
9799;SDS011;4939;52.00085300;4.17406100;2023-08-01T09:29:11;6.45;;;2.00;;
9799;SDS011;4939;52.00085300;4.17406100;2023-08-01T09:31:40;7.80;;;1.77;;
9799;SDS011;4939;52.00085300;4.17406100;2023-08-01T09:34:17;6.90;;;2.42;;
9799;SDS011;4939;52.00085300;4.17406100;2023-08-01T09:36:45;5.97;;;1.88;;
9799;SDS011;4939;52.00085300;4.17406100;2023-08-01T09:39:15;8.05;;;2.10;;
9799;SDS011;4939;52.00085300;4.17406100;2023-08-01T09:41:42;12.40;;;2.20;;
9799;SDS011;4939;52.00085300;4.17406100;2023-08-01T09:44:15;8.52;;;2.10;;
9799;SDS011;4939;52.00085300;4.17406100;2023-08-01T09:46:41;6.18;;;1.67;;
9799;SDS011;4939;52.00085300;4.17406100;2023-08-01T09:49:11;6.50;;;1.98;;
9799;SDS011;4939;52.00085300;4.17406100;2023-08-01T09:51:47;7.47;;;1.85;;
9799;SDS011;4939;52.00085300;4.17406100;2023-08-01T09:54:16;8.18;;;1.63;;
9799;SDS011;4939;52.00085300;4.17406100;2023-08-01T09:56:46;6.57;;;1.45;;
9799;SDS011;4939;52.00085300;4.17406100;2023-08-01T09:59:24;4.45;;;1.60;;
9799;SDS011;4939;52.00085300;4.17406100;2023-08-01T10:01:52;13.65;;;2.10;;
9799;SDS011;4939;52.00085300;4.17406100;2023-08-01T10:04:27;10.52;;;1.85;;
9799;SDS011;4939;52.00085300;4.17406100;2023-08-01T10:06:57;8.25;;;2.30;;
9799;SDS011;4939;52.00085300;4.17406100;2023-08-01T10:09:24;7.20;;;1.60;;
9799;SDS011;4939;52.00085300;4.17406100;2023-08-01T10:11:50;6.82;;;1.45;;
9799;SDS011;4939;52.00085300;4.17406100;2023-08-01T10:14:19;10.93;;;1.77;;
9799;SDS011;4939;52.00085300;4.17406100;2023-08-01T10:16:45;8.82;;;2.10;;
9799;SDS011;4939;52.00085300;4.17406100;2023-08-01T10:19:12;12.95;;;2.00;;
9799;SDS011;4939;52.00085300;4.17406100;2023-08-01T10:21:38;8.57;;;1.80;;
9799;SDS011;4939;52.00085300;4.17406100;2023-08-01T10:24:06;9.18;;;2.00;;
9799;SDS011;4939;52.00085300;4.17406100;2023-08-01T10:26:33;8.98;;;2.00;;
9799;SDS011;4939;52.00085300;4.17406100;2023-08-01T10:29:00;10.10;;;2.03;;
9799;SDS011;4939;52.00085300;4.17406100;2023-08-01T10:31:27;11.25;;;2.00;;
9799;SDS011;4939;52.00085300;4.17406100;2023-08-01T10:34:02;9.88;;;1.80;;
9799;SDS011;4939;52.00085300;4.17406100;2023-08-01T10:36:32;9.38;;;1.70;;
9799;SDS011;4939;52.00085300;4.17406100;2023-08-01T10:39:00;10.43;;;1.80;;
9799;SDS011;4939;52.00085300;4.17406100;2023-08-01T10:41:30;10.15;;;1.90;;
9799;SDS011;4939;52.00085300;4.17406100;2023-08-01T10:44:07;6.63;;;1.67;;
9799;SDS011;4939;52.00085300;4.17406100;2023-08-01T10:49:32;8.68;;;1.58;;
9799;SDS011;4939;52.00085300;4.17406100;2023-08-01T10:54:46;6.90;;;1.60;;
9799;SDS011;4939;52.00085300;4.17406100;2023-08-01T10:57:16;9.38;;;1.50;;
9799;SDS011;4939;52.00085300;4.17406100;2023-08-01T10:59:45;7.20;;;1.40;;
9799;SDS011;4939;52.00085300;4.17406100;2023-08-01T11:02:11;7.25;;;1.77;;
9799;SDS011;4939;52.00085300;4.17406100;2023-08-01T11:04:36;6.47;;;1.52;;
9799;SDS011;4939;52.00085300;4.17406100;2023-08-01T11:07:03;9.05;;;1.42;;
9799;SDS011;4939;52.00085300;4.17406100;2023-08-01T11:09:30;6.88;;;1.52;;
9799;SDS011;4939;52.00085300;4.17406100;2023-08-01T11:11:57;9.15;;;1.77;;
9799;SDS011;4939;52.00085300;4.17406100;2023-08-01T11:14:27;8.52;;;1.65;;
9799;SDS011;4939;52.00085300;4.17406100;2023-08-01T11:16:54;8.90;;;2.55;;
9799;SDS011;4939;52.00085300;4.17406100;2023-08-01T11:19:22;9.63;;;1.67;;
9799;SDS011;4939;52.00085300;4.17406100;2023-08-01T11:21:52;8.88;;;1.90;;
9799;SDS011;4939;52.00085300;4.17406100;2023-08-01T11:24:19;10.40;;;2.38;;
9799;SDS011;4939;52.00085300;4.17406100;2023-08-01T11:26:46;5.72;;;1.50;;
9799;SDS011;4939;52.00085300;4.17406100;2023-08-01T11:29:13;5.97;;;2.25;;
9799;SDS011;4939;52.00085300;4.17406100;2023-08-01T11:31:40;8.30;;;1.90;;
9799;SDS011;4939;52.00085300;4.17406100;2023-08-01T11:34:06;6.75;;;1.60;;
9799;SDS011;4939;52.00085300;4.17406100;2023-08-01T11:36:35;8.45;;;2.55;;
9799;SDS011;4939;52.00085300;4.17406100;2023-08-01T11:39:02;12.10;;;1.88;;
9799;SDS011;4939;52.00085300;4.17406100;2023-08-01T11:41:28;7.72;;;1.60;;
9799;SDS011;4939;52.00085300;4.17406100;2023-08-01T11:43:54;7.25;;;1.45;;
9799;SDS011;4939;52.00085300;4.17406100;2023-08-01T11:46:21;6.75;;;1.73;;
9799;SDS011;4939;52.00085300;4.17406100;2023-08-01T11:48:47;4.20;;;1.33;;
9799;SDS011;4939;52.00085300;4.17406100;2023-08-01T11:51:15;7.05;;;1.77;;
9799;SDS011;4939;52.00085300;4.17406100;2023-08-01T11:53:41;12.15;;;1.75;;
9799;SDS011;4939;52.00085300;4.17406100;2023-08-01T11:56:06;9.15;;;1.85;;
9799;SDS011;4939;52.00085300;4.17406100;2023-08-01T11:58:36;10.50;;;1.63;;
9799;SDS011;4939;52.00085300;4.17406100;2023-08-01T12:01:12;9.88;;;1.67;;
9799;SDS011;4939;52.00085300;4.17406100;2023-08-01T12:03:45;6.25;;;1.50;;
9799;SDS011;4939;52.00085300;4.17406100;2023-08-01T12:06:11;7.10;;;1.42;;
9799;SDS011;4939;52.00085300;4.17406100;2023-08-01T12:08:39;7.95;;;1.52;;
9799;SDS011;4939;52.00085300;4.17406100;2023-08-01T12:11:06;5.13;;;1.50;;
9799;SDS011;4939;52.00085300;4.17406100;2023-08-01T12:14:12;6.15;;;1.67;;
9799;SDS011;4939;52.00085300;4.17406100;2023-08-01T12:16:43;12.43;;;1.80;;
9799;SDS011;4939;52.00085300;4.17406100;2023-08-01T12:19:11;8.75;;;1.67;;
9799;SDS011;4939;52.00085300;4.17406100;2023-08-01T12:21:41;6.10;;;1.85;;
9799;SDS011;4939;52.00085300;4.17406100;2023-08-01T12:24:07;9.95;;;1.90;;
9799;SDS011;4939;52.00085300;4.17406100;2023-08-01T12:26:33;9.13;;;1.85;;
9799;SDS011;4939;52.00085300;4.17406100;2023-08-01T12:28:59;12.60;;;1.90;;
9799;SDS011;4939;52.00085300;4.17406100;2023-08-01T12:31:25;9.32;;;2.03;;
9799;SDS011;4939;52.00085300;4.17406100;2023-08-01T12:33:51;11.98;;;1.95;;
9799;SDS011;4939;52.00085300;4.17406100;2023-08-01T12:36:18;10.48;;;1.67;;
9799;SDS011;4939;52.00085300;4.17406100;2023-08-01T12:38:44;10.27;;;2.33;;
9799;SDS011;4939;52.00085300;4.17406100;2023-08-01T12:41:10;10.50;;;1.58;;
9799;SDS011;4939;52.00085300;4.17406100;2023-08-01T12:43:35;7.03;;;1.85;;
9799;SDS011;4939;52.00085300;4.17406100;2023-08-01T12:46:01;5.88;;;1.48;;
9799;SDS011;4939;52.00085300;4.17406100;2023-08-01T12:48:27;9.75;;;1.90;;
9799;SDS011;4939;52.00085300;4.17406100;2023-08-01T12:50:53;10.93;;;1.77;;
9799;SDS011;4939;52.00085300;4.17406100;2023-08-01T12:53:20;6.93;;;1.40;;
9799;SDS011;4939;52.00085300;4.17406100;2023-08-01T12:55:48;9.27;;;1.85;;
9799;SDS011;4939;52.00085300;4.17406100;2023-08-01T12:58:14;6.40;;;1.42;;
9799;SDS011;4939;52.00085300;4.17406100;2023-08-01T13:00:41;6.28;;;1.42;;
9799;SDS011;4939;52.00085300;4.17406100;2023-08-01T13:03:07;5.95;;;1.58;;
9799;SDS011;4939;52.00085300;4.17406100;2023-08-01T13:05:37;5.82;;;1.65;;
9799;SDS011;4939;52.00085300;4.17406100;2023-08-01T13:08:04;10.23;;;2.25;;
9799;SDS011;4939;52.00085300;4.17406100;2023-08-01T13:10:31;5.22;;;1.73;;